createdAt,value
2019-01-30T00:01:39.217Z,10.20
2019-01-30T00:04:10.944Z,9.93
2019-01-30T00:06:42.500Z,8.30
2019-01-30T00:09:13.907Z,8.10
2019-01-30T00:11:45.421Z,7.60
2019-01-30T00:14:16.949Z,8.30
2019-01-30T00:16:48.418Z,7.13
2019-01-30T00:19:19.831Z,7.60
2019-01-30T00:21:51.367Z,6.53
2019-01-30T00:24:22.888Z,8.40
2019-01-30T00:26:54.329Z,8.00
2019-01-30T00:29:25.767Z,8.90
2019-01-30T00:31:57.202Z,9.13
2019-01-30T00:34:28.628Z,9.00
2019-01-30T00:37:01.001Z,9.30
2019-01-30T00:39:33.500Z,9.57
2019-01-30T00:42:05.000Z,10.73
2019-01-30T00:44:36.492Z,9.90
2019-01-30T00:47:15.749Z,9.60
2019-01-30T00:49:41.109Z,10.03
2019-01-30T00:52:12.517Z,9.10
2019-01-30T00:54:44.008Z,8.70
2019-01-30T00:57:15.690Z,8.23
2019-01-30T00:59:47.234Z,7.80
2019-01-30T01:02:18.842Z,6.97
2019-01-30T01:04:50.285Z,6.40
2019-01-30T01:07:21.997Z,7.07
2019-01-30T01:09:53.451Z,8.80
2019-01-30T01:12:24.968Z,8.37
2019-01-30T01:14:56.414Z,7.80
2019-01-30T01:17:28.051Z,8.87
2019-01-30T01:19:59.537Z,8.60
2019-01-30T01:22:31.005Z,8.97
2019-01-30T01:25:02.492Z,8.77
2019-01-30T01:27:33.920Z,8.43
2019-01-30T01:30:06.933Z,9.88
2019-01-30T01:32:38.445Z,12.00
2019-01-30T01:35:10.169Z,11.83
2019-01-30T01:37:41.916Z,10.87
2019-01-30T01:40:14.490Z,11.97
2019-01-30T01:42:45.902Z,10.43
2019-01-30T01:45:19.005Z,11.10
2019-01-30T01:47:50.428Z,11.27
2019-01-30T01:50:22.258Z,12.07
2019-01-30T01:52:53.666Z,12.03
2019-01-30T01:55:25.153Z,11.23
2019-01-30T01:57:56.655Z,11.30
2019-01-30T02:00:35.193Z,12.30
2019-01-30T02:03:01.450Z,11.83
2019-01-30T02:05:32.982Z,15.53
2019-01-30T02:08:04.434Z,12.10
2019-01-30T02:10:36.918Z,11.73
2019-01-30T02:13:08.431Z,10.60
2019-01-30T02:15:39.928Z,10.80
2019-01-30T02:18:11.407Z,11.20
2019-01-30T02:20:42.945Z,12.53
2019-01-30T02:23:14.419Z,11.80
2019-01-30T02:25:45.978Z,10.30
2019-01-30T02:28:17.468Z,11.17
2019-01-30T02:30:48.960Z,10.50
2019-01-30T02:33:20.451Z,10.63
2019-01-30T02:35:51.950Z,10.97
2019-01-30T02:38:23.780Z,9.93
2019-01-30T02:40:55.329Z,9.57
2019-01-30T02:43:26.800Z,9.07
2019-01-30T02:45:58.339Z,9.97
2019-01-30T02:48:29.943Z,8.90
2019-01-30T02:51:01.561Z,9.50
2019-01-30T02:53:32.990Z,8.83
2019-01-30T02:56:04.566Z,12.63
2019-01-30T02:58:36.014Z,9.87
2019-01-30T03:01:07.629Z,8.90
2019-01-30T03:03:39.053Z,9.60
2019-01-30T03:06:10.477Z,9.40
2019-01-30T03:08:41.987Z,9.40
2019-01-30T03:11:13.527Z,9.50
2019-01-30T03:13:44.934Z,8.80
2019-01-30T03:16:16.449Z,8.93
2019-01-30T03:18:47.961Z,9.47
2019-01-30T03:21:19.405Z,9.20
2019-01-30T03:23:50.880Z,8.27
2019-01-30T03:26:22.399Z,8.33
2019-01-30T03:28:53.927Z,7.50
2019-01-30T03:31:25.425Z,7.53
2019-01-30T03:33:56.927Z,7.90
2019-01-30T03:36:28.464Z,8.53
2019-01-30T03:38:59.874Z,8.50
2019-01-30T03:41:31.497Z,8.27
2019-01-30T03:44:02.938Z,9.20
2019-01-30T03:46:34.441Z,11.00
2019-01-30T03:49:05.883Z,8.13
2019-01-30T03:51:37.478Z,8.57
2019-01-30T03:54:08.880Z,8.50
2019-01-30T03:56:40.398Z,8.80
2019-01-30T03:59:11.852Z,8.17
2019-01-30T04:01:43.496Z,8.77
2019-01-30T04:04:14.979Z,8.50
2019-01-30T04:06:46.427Z,7.73
2019-01-30T04:09:17.823Z,8.47
2019-01-30T04:11:49.414Z,8.53
2019-01-30T04:14:20.895Z,7.80
2019-01-30T04:16:52.372Z,7.90
2019-01-30T04:19:24.749Z,8.77
2019-01-30T04:21:56.179Z,7.97
2019-01-30T04:24:27.644Z,7.47
2019-01-30T04:26:59.194Z,7.60
2019-01-30T04:29:30.680Z,8.33
2019-01-30T04:32:02.170Z,7.17
2019-01-30T04:34:33.662Z,7.80
2019-01-30T04:37:05.281Z,9.68
2019-01-30T04:39:36.747Z,7.63
2019-01-30T04:42:08.241Z,6.73
2019-01-30T04:44:39.699Z,7.17
2019-01-30T04:47:11.154Z,6.60
2019-01-30T04:49:42.637Z,6.47
2019-01-30T04:52:14.121Z,6.67
2019-01-30T04:54:45.693Z,5.80
2019-01-30T04:57:17.198Z,6.93
2019-01-30T04:59:48.702Z,7.73
2019-01-30T05:02:20.208Z,7.60
2019-01-30T05:04:51.762Z,7.17
2019-01-30T05:07:23.296Z,7.50
2019-01-30T05:09:56.823Z,8.07
2019-01-30T05:12:28.278Z,7.57
2019-01-30T05:14:59.811Z,7.30
2019-01-30T05:17:31.275Z,7.60
2019-01-30T05:20:03.797Z,7.83
2019-01-30T05:22:35.408Z,6.87
2019-01-30T05:25:07.218Z,8.70
2019-01-30T05:27:38.692Z,8.07
2019-01-30T05:30:21.893Z,7.57
2019-01-30T05:32:53.850Z,7.07
2019-01-30T05:35:25.389Z,8.50
2019-01-30T05:37:56.839Z,7.60
2019-01-30T05:40:28.356Z,7.43
2019-01-30T05:42:59.831Z,7.60
2019-01-30T05:45:31.341Z,10.90
2019-01-30T05:48:02.868Z,8.57
2019-01-30T05:50:34.310Z,7.80
2019-01-30T05:53:06.012Z,9.47
2019-01-30T05:55:37.453Z,8.90
2019-01-30T05:58:08.962Z,8.93
2019-01-30T06:00:42.900Z,8.53
2019-01-30T06:03:15.367Z,8.60
2019-01-30T06:05:46.814Z,9.17
2019-01-30T06:08:18.261Z,9.57
2019-01-30T06:10:49.819Z,8.83
2019-01-30T06:13:21.252Z,9.90
2019-01-30T06:15:52.691Z,9.00
2019-01-30T06:18:24.226Z,8.90
2019-01-30T06:20:55.657Z,12.78
2019-01-30T06:23:27.262Z,10.50
2019-01-30T06:25:58.682Z,10.70
2019-01-30T06:28:30.230Z,9.83
2019-01-30T06:31:01.727Z,10.10
2019-01-30T06:33:33.294Z,10.60
2019-01-30T06:36:04.984Z,12.98
2019-01-30T06:38:36.753Z,11.00
2019-01-30T06:41:08.324Z,10.57
2019-01-30T06:43:39.772Z,11.60
2019-01-30T06:46:11.263Z,12.07
2019-01-30T06:48:42.770Z,11.37
2019-01-30T06:51:14.224Z,11.57
2019-01-30T06:53:45.764Z,11.97
2019-01-30T06:56:17.295Z,11.53
2019-01-30T06:58:48.839Z,11.63
2019-01-30T07:01:20.308Z,11.37
2019-01-30T07:03:51.812Z,11.77
2019-01-30T07:06:23.318Z,12.23
2019-01-30T07:08:54.787Z,11.30
2019-01-30T07:11:26.204Z,12.60
2019-01-30T07:13:57.729Z,11.30
2019-01-30T07:16:29.307Z,11.53
2019-01-30T07:19:00.815Z,12.73
2019-01-30T07:21:32.305Z,12.13
2019-01-30T07:24:03.726Z,12.63
2019-01-30T07:26:35.252Z,12.97
2019-01-30T07:29:06.803Z,16.93
2019-01-30T07:31:38.212Z,13.97
2019-01-30T07:34:09.669Z,13.93
2019-01-30T07:36:41.104Z,13.57
2019-01-30T07:39:12.657Z,13.57
2019-01-30T07:41:44.127Z,13.43
2019-01-30T07:44:15.678Z,13.77
2019-01-30T07:46:47.096Z,13.43
2019-01-30T07:49:18.576Z,13.37
2019-01-30T07:51:50.062Z,13.70
2019-01-30T07:54:21.608Z,13.47
2019-01-30T07:56:53.102Z,14.20
2019-01-30T07:59:24.614Z,12.70
2019-01-30T08:01:56.044Z,14.47
2019-01-30T08:04:27.590Z,13.87
2019-01-30T08:06:59.136Z,14.07
2019-01-30T08:09:30.757Z,12.60
2019-01-30T08:12:02.198Z,13.60
2019-01-30T08:14:33.725Z,13.70
2019-01-30T08:17:05.619Z,14.07
2019-01-30T08:19:37.080Z,14.90
2019-01-30T08:22:08.089Z,13.07
2019-01-30T08:24:39.986Z,12.37
2019-01-30T08:27:11.539Z,12.83
2019-01-30T08:29:43.376Z,12.70
2019-01-30T08:32:15.205Z,11.70
2019-01-30T08:34:46.693Z,12.37
2019-01-30T08:37:18.138Z,12.90
2019-01-30T08:39:49.567Z,12.17
2019-01-30T08:42:21.005Z,12.30
2019-01-30T08:44:52.533Z,12.63
2019-01-30T08:47:23.948Z,12.40
2019-01-30T08:49:55.516Z,12.70
2019-01-30T08:52:26.942Z,12.80
2019-01-30T08:54:58.570Z,12.17
2019-01-30T08:57:30.061Z,11.70
2019-01-30T09:00:01.575Z,11.93
2019-01-30T09:02:33.377Z,12.57
2019-01-30T09:05:05.753Z,11.97
2019-01-30T09:07:43.868Z,12.43
2019-01-30T09:10:13.209Z,12.77
2019-01-30T09:12:44.764Z,14.75
2019-01-30T09:15:18.035Z,12.90
2019-01-30T09:17:49.511Z,12.60
2019-01-30T09:20:22.421Z,12.47
2019-01-30T09:22:53.884Z,12.10
2019-01-30T09:25:27.430Z,12.60
2019-01-30T09:27:59.849Z,11.90
2019-01-30T09:30:36.219Z,12.37
2019-01-30T09:33:10.198Z,12.43
2019-01-30T09:35:41.808Z,12.70
2019-01-30T09:38:13.271Z,11.90
2019-01-30T09:40:44.873Z,12.47
2019-01-30T09:43:16.810Z,11.47
2019-01-30T09:45:48.398Z,11.87
2019-01-30T09:48:19.913Z,13.78
2019-01-30T09:50:51.421Z,12.87
2019-01-30T09:53:22.990Z,12.43
2019-01-30T09:55:54.527Z,12.63
2019-01-30T09:58:25.989Z,12.17
2019-01-30T10:00:57.443Z,13.83
2019-01-30T10:03:36.011Z,13.43
2019-01-30T10:06:02.134Z,12.98
2019-01-30T10:08:33.632Z,12.13
2019-01-30T10:11:06.048Z,12.87
2019-01-30T10:13:37.611Z,11.53
2019-01-30T10:16:09.115Z,11.97
2019-01-30T10:18:40.619Z,11.60
2019-01-30T10:21:12.140Z,11.73
2019-01-30T10:23:43.639Z,11.37
2019-01-30T10:26:15.089Z,11.77
2019-01-30T10:28:46.674Z,11.10
2019-01-30T10:31:18.164Z,11.40
2019-01-30T10:33:49.644Z,11.93
2019-01-30T10:36:21.083Z,11.70
2019-01-30T10:38:52.524Z,11.53
2019-01-30T10:41:24.098Z,11.70
2019-01-30T10:43:56.552Z,11.47
2019-01-30T10:46:28.107Z,11.90
2019-01-30T10:48:59.572Z,11.90
2019-01-30T10:51:31.017Z,11.70
2019-01-30T10:54:02.465Z,11.80
2019-01-30T10:56:34.028Z,11.20
2019-01-30T10:59:05.729Z,11.43
2019-01-30T11:01:37.253Z,11.30
2019-01-30T11:04:08.675Z,11.70
2019-01-30T11:06:40.110Z,11.00
2019-01-30T11:09:12.181Z,11.97
2019-01-30T11:11:43.642Z,11.53
2019-01-30T11:14:15.273Z,11.40
2019-01-30T11:16:47.960Z,12.87
2019-01-30T11:19:19.422Z,12.03
2019-01-30T11:21:50.861Z,12.05
2019-01-30T11:24:22.300Z,11.35
2019-01-30T11:26:53.957Z,11.90
2019-01-30T11:29:25.463Z,11.83
2019-01-30T11:31:56.921Z,11.70
2019-01-30T11:34:28.496Z,13.08
2019-01-30T11:37:00.267Z,19.40
2019-01-30T11:39:31.881Z,21.37
2019-01-30T11:42:03.446Z,13.10
2019-01-30T11:44:35.361Z,13.63
2019-01-30T11:47:06.805Z,13.03
2019-01-30T11:49:38.288Z,14.27
2019-01-30T11:52:09.791Z,13.97
2019-01-30T11:54:41.413Z,13.63
2019-01-30T11:57:12.880Z,13.37
2019-01-30T11:59:44.313Z,13.30
2019-01-30T12:02:15.738Z,13.03
2019-01-30T12:04:47.367Z,13.00
2019-01-30T12:07:18.837Z,13.80
2019-01-30T12:09:50.321Z,13.20
2019-01-30T12:12:21.780Z,13.50
2019-01-30T12:14:53.243Z,13.67
2019-01-30T12:17:24.843Z,13.57
2019-01-30T12:19:56.442Z,13.80
2019-01-30T12:22:28.023Z,14.00
2019-01-30T12:24:59.574Z,12.87
2019-01-30T12:27:31.097Z,13.47
2019-01-30T12:30:02.781Z,12.83
2019-01-30T12:32:34.606Z,12.80
2019-01-30T12:35:06.789Z,13.23
2019-01-30T12:37:39.525Z,12.77
2019-01-30T12:40:12.329Z,14.43
2019-01-30T12:42:44.113Z,12.20
2019-01-30T12:45:21.405Z,12.73
2019-01-30T12:47:53.887Z,12.98
2019-01-30T12:50:25.389Z,12.80
2019-01-30T12:52:56.822Z,13.23
2019-01-30T12:55:29.504Z,11.60
2019-01-30T12:58:01.320Z,12.60
2019-01-30T13:00:37.886Z,11.27
2019-01-30T13:03:09.418Z,13.38
2019-01-30T13:05:40.993Z,12.58
2019-01-30T13:08:12.453Z,12.67
2019-01-30T13:10:43.904Z,13.03
2019-01-30T13:13:15.453Z,13.50
2019-01-30T13:15:46.895Z,13.95
2019-01-30T13:18:18.917Z,12.23
2019-01-30T13:20:50.457Z,12.10
2019-01-30T13:23:22.019Z,12.70
2019-01-30T13:25:53.635Z,13.70
2019-01-30T13:28:25.181Z,13.00
2019-01-30T13:30:56.690Z,14.30
2019-01-30T13:33:28.260Z,14.07
2019-01-30T13:35:59.685Z,13.57
2019-01-30T13:38:31.133Z,13.53
2019-01-30T13:41:02.558Z,15.27
2019-01-30T13:43:34.020Z,15.40
2019-01-30T13:46:05.867Z,15.10
2019-01-30T13:48:37.308Z,14.93
2019-01-30T13:51:11.180Z,15.43
2019-01-30T13:53:42.028Z,17.57
2019-01-30T13:56:13.507Z,16.57
2019-01-30T13:58:45.080Z,16.17
2019-01-30T14:01:17.869Z,17.47
2019-01-30T14:03:49.449Z,18.67
2019-01-30T14:06:20.913Z,20.60
2019-01-30T14:08:52.409Z,17.90
2019-01-30T14:11:23.874Z,18.10
2019-01-30T14:13:55.398Z,18.20
2019-01-30T14:16:26.917Z,19.73
2019-01-30T14:18:58.425Z,19.67
2019-01-30T14:21:30.027Z,20.30
2019-01-30T14:24:01.480Z,20.93
2019-01-30T14:26:33.188Z,19.07
2019-01-30T14:29:05.106Z,19.63
2019-01-30T14:31:36.585Z,21.50
2019-01-30T14:34:08.130Z,19.77
2019-01-30T14:36:39.800Z,19.50
2019-01-30T14:39:11.369Z,65.70
2019-01-30T14:41:42.892Z,51.73
2019-01-30T14:44:14.460Z,19.50
2019-01-30T14:46:45.927Z,19.57
2019-01-30T14:49:17.360Z,19.90
2019-01-30T14:51:48.821Z,19.07
2019-01-30T14:54:20.292Z,24.52
2019-01-30T14:56:52.816Z,21.62
2019-01-30T14:59:24.288Z,20.50
2019-01-30T15:01:56.652Z,20.13
2019-01-30T15:04:29.044Z,19.93
2019-01-30T15:07:00.724Z,19.93
2019-01-30T15:09:32.191Z,20.03
2019-01-30T15:12:03.691Z,19.83
2019-01-30T15:14:35.206Z,21.55
2019-01-30T15:17:06.699Z,20.80
2019-01-30T15:19:38.285Z,19.33
2019-01-30T15:22:09.804Z,18.73
2019-01-30T15:24:41.298Z,17.53
2019-01-30T15:27:12.795Z,19.00
2019-01-30T15:29:44.264Z,18.07
2019-01-30T15:32:15.688Z,17.90
2019-01-30T15:34:47.113Z,16.87
2019-01-30T15:37:18.515Z,17.87
2019-01-30T15:39:50.006Z,16.90
2019-01-30T15:42:21.389Z,18.43
2019-01-30T15:44:52.956Z,19.03
2019-01-30T15:47:24.392Z,19.43
2019-01-30T15:49:55.853Z,19.33
2019-01-30T15:52:27.295Z,19.30
2019-01-30T15:54:58.982Z,17.57
2019-01-30T15:57:30.387Z,20.03
2019-01-30T16:00:01.939Z,21.10
2019-01-30T16:02:33.582Z,25.10
2019-01-30T16:05:05.397Z,21.10
2019-01-30T16:07:36.836Z,19.07
2019-01-30T16:10:09.718Z,18.93
2019-01-30T16:12:41.561Z,19.87
2019-01-30T16:15:17.044Z,19.93
2019-01-30T16:17:49.428Z,19.17
2019-01-30T16:20:21.134Z,19.60
2019-01-30T16:22:52.581Z,19.97
2019-01-30T16:25:24.017Z,18.67
2019-01-30T16:27:55.516Z,21.27
2019-01-30T16:30:27.083Z,20.43
2019-01-30T16:32:58.687Z,21.77
2019-01-30T16:35:31.027Z,20.87
2019-01-30T16:38:02.409Z,21.47
2019-01-30T16:40:33.816Z,22.03
2019-01-30T16:43:06.087Z,21.67
2019-01-30T16:45:38.258Z,20.70
2019-01-30T16:48:10.227Z,22.67
2019-01-30T16:50:41.632Z,22.57
2019-01-30T16:53:13.046Z,21.93
2019-01-30T16:55:44.554Z,22.73
2019-01-30T16:58:17.093Z,20.87
2019-01-30T17:00:48.656Z,21.53
2019-01-30T17:03:20.156Z,23.20
2019-01-30T17:05:51.601Z,21.43
2019-01-30T17:08:23.059Z,19.60
2019-01-30T17:10:54.580Z,19.70
2019-01-30T17:13:26.164Z,36.80
2019-01-30T17:15:57.627Z,28.97
2019-01-30T17:18:29.124Z,28.67
2019-01-30T17:21:00.668Z,22.70
2019-01-30T17:23:32.590Z,22.70
2019-01-30T17:26:04.004Z,21.00
2019-01-30T17:28:35.451Z,23.97
2019-01-30T17:31:28.346Z,20.97
2019-01-30T17:33:59.794Z,20.23
2019-01-30T17:36:31.286Z,27.60
2019-01-30T17:39:02.873Z,22.70
2019-01-30T17:41:35.519Z,21.10
2019-01-30T17:44:06.997Z,21.40
2019-01-30T17:46:38.568Z,21.87
2019-01-30T17:49:10.003Z,21.30
2019-01-30T17:51:42.983Z,21.50
2019-01-30T17:54:14.611Z,19.63
2019-01-30T17:56:46.163Z,20.10
2019-01-30T17:59:17.656Z,22.23
2019-01-30T18:01:49.116Z,20.67
2019-01-30T18:04:20.599Z,18.33
2019-01-30T18:07:10.721Z,49.00
2019-01-30T18:09:56.048Z,44.57
2019-01-30T18:12:27.453Z,22.47
2019-01-30T18:14:58.928Z,21.13
2019-01-30T18:17:30.392Z,18.67
2019-01-30T18:20:01.906Z,17.43
2019-01-30T18:22:33.415Z,20.27
2019-01-30T18:25:06.247Z,26.33
2019-01-30T18:27:37.765Z,22.20
2019-01-30T18:30:12.207Z,21.90
2019-01-30T18:32:43.895Z,20.87
2019-01-30T18:35:15.563Z,17.97
2019-01-30T18:37:47.151Z,17.43
2019-01-30T18:40:20.777Z,16.47
2019-01-30T18:42:52.632Z,18.17
2019-01-30T18:45:25.197Z,17.70
2019-01-30T18:47:56.700Z,15.10
2019-01-30T18:50:28.264Z,19.23
2019-01-30T18:52:59.690Z,16.43
2019-01-30T18:55:31.286Z,16.53
2019-01-30T18:58:02.737Z,15.77
2019-01-30T19:00:37.139Z,15.53
2019-01-30T19:03:10.747Z,16.80
2019-01-30T19:05:42.287Z,13.97
2019-01-30T19:08:13.726Z,14.47
2019-01-30T19:10:45.136Z,15.70
2019-01-30T19:13:16.650Z,17.37
2019-01-30T19:15:48.073Z,20.88
2019-01-30T19:18:19.587Z,18.73
2019-01-30T19:20:51.043Z,20.50
2019-01-30T19:23:22.527Z,17.73
2019-01-30T19:25:54.053Z,17.27
2019-01-30T19:28:25.477Z,18.30
2019-01-30T19:30:56.889Z,18.50
2019-01-30T19:33:28.316Z,19.23
2019-01-30T19:35:59.801Z,18.23
2019-01-30T19:38:31.295Z,18.63
2019-01-30T19:41:02.809Z,15.93
2019-01-30T19:43:34.269Z,19.20
2019-01-30T19:46:05.877Z,19.37
2019-01-30T19:48:37.374Z,20.75
2019-01-30T19:51:08.799Z,19.80
2019-01-30T19:53:40.249Z,18.83
2019-01-30T19:56:11.724Z,18.53
2019-01-30T19:58:43.207Z,15.00
2019-01-30T20:01:14.718Z,14.20
2019-01-30T20:03:46.161Z,44.50
2019-01-30T20:06:17.595Z,78.70
2019-01-30T20:08:49.353Z,27.63
2019-01-30T20:11:20.753Z,20.73
2019-01-30T20:13:52.262Z,18.17
2019-01-30T20:16:23.782Z,19.67
2019-01-30T20:18:55.924Z,17.97
2019-01-30T20:21:27.385Z,17.23
2019-01-30T20:23:58.818Z,14.60
2019-01-30T20:26:30.328Z,16.33
2019-01-30T20:29:01.864Z,17.30
2019-01-30T20:31:34.115Z,15.10
2019-01-30T20:34:10.443Z,15.53
2019-01-30T20:36:39.533Z,17.13
2019-01-30T20:39:12.332Z,23.22
2019-01-30T20:41:43.767Z,19.50
2019-01-30T20:44:15.606Z,17.40
2019-01-30T20:46:47.793Z,14.93
2019-01-30T20:49:19.543Z,13.73
2019-01-30T20:51:52.726Z,13.53
2019-01-30T20:54:25.277Z,13.80
2019-01-30T20:56:57.434Z,15.53
2019-01-30T20:59:28.954Z,14.70
2019-01-30T21:02:00.642Z,16.47
2019-01-30T21:04:32.136Z,17.20
2019-01-30T21:07:03.681Z,17.53
2019-01-30T21:09:35.212Z,17.23
2019-01-30T21:12:06.846Z,14.63
2019-01-30T21:14:39.434Z,15.97
2019-01-30T21:17:11.080Z,16.27
2019-01-30T21:19:42.653Z,14.37
2019-01-30T21:22:14.440Z,17.00
2019-01-30T21:24:45.987Z,15.93
2019-01-30T21:27:17.622Z,16.13
2019-01-30T21:29:49.181Z,16.13
2019-01-30T21:32:20.709Z,17.97
2019-01-30T21:34:52.353Z,14.97
2019-01-30T21:37:24.460Z,16.13
2019-01-30T21:39:56.131Z,18.57
2019-01-30T21:42:27.616Z,17.53
2019-01-30T21:44:59.211Z,17.47
2019-01-30T21:47:30.751Z,20.05
2019-01-30T21:50:02.282Z,33.17
2019-01-30T21:52:34.973Z,27.30
2019-01-30T21:55:07.973Z,21.63
2019-01-30T21:57:39.444Z,20.07
2019-01-30T22:00:14.460Z,17.33
2019-01-30T22:02:46.159Z,16.53
2019-01-30T22:05:17.903Z,15.03
2019-01-30T22:08:00.085Z,14.87
2019-01-30T22:10:24.939Z,14.40
2019-01-30T22:12:56.429Z,13.97
2019-01-30T22:15:27.970Z,13.70
2019-01-30T22:17:59.441Z,14.23
2019-01-30T22:20:30.888Z,14.00
2019-01-30T22:23:02.436Z,13.80
2019-01-30T22:25:34.025Z,15.53
2019-01-30T22:28:05.801Z,14.30
2019-01-30T22:30:37.364Z,14.47
2019-01-30T22:33:08.981Z,14.30
2019-01-30T22:35:40.492Z,15.10
2019-01-30T22:38:12.966Z,14.83
2019-01-30T22:40:45.875Z,19.63
2019-01-30T22:43:17.373Z,24.17
2019-01-30T22:45:50.638Z,19.23
2019-01-30T22:48:22.055Z,16.17
2019-01-30T22:50:53.510Z,15.77
2019-01-30T22:53:24.993Z,16.57
2019-01-30T22:55:56.525Z,15.27
2019-01-30T22:58:28.032Z,18.13
2019-01-30T23:01:55.278Z,15.77
2019-01-30T23:04:59.522Z,15.13
2019-01-30T23:08:03.993Z,15.17
2019-01-30T23:11:15.352Z,15.90
2019-01-30T23:13:59.574Z,15.70
2019-01-30T23:17:04.714Z,17.80
2019-01-30T23:20:00.972Z,15.97
2019-01-30T23:23:06.354Z,15.77
2019-01-30T23:26:08.412Z,16.93
2019-01-30T23:29:16.835Z,16.17
2019-01-30T23:32:23.934Z,15.37
2019-01-30T23:35:30.713Z,13.70
2019-01-30T23:38:40.561Z,16.07
2019-01-30T23:41:39.620Z,14.53
2019-01-30T23:44:38.127Z,14.73
2019-01-30T23:47:59.288Z,14.60
2019-01-30T23:50:49.521Z,17.23
2019-01-30T23:53:50.008Z,14.63
2019-01-30T23:56:43.422Z,15.63
2019-01-30T23:59:38.085Z,14.57
